Terminal Aerodrome Forecast
Issued by NWS

Home | Current Version | Previous Version | Text Only | Print | Product List | Glossary On
Versions: 1 2 3 4 5 6 7 8 9 10 11 12 13 14 15 16
000
FTUS43 KLSX 272338
TAFCPS
TAF
KCPS 272338Z 2800/2824 18012KT P6SM SCT018 OVC040
      TEMPO 2800/2802 4SM -SHRA OVC018
     FM281200 18009KT P6SM OVC020
     FM281500 18013KT P6SM BKN060=

USA.gov is the U.S. government's official web portal to all federal, state and local government web resources and services.